createdAt,value
2018-08-13T00:00:44.842Z,42.44
2018-08-13T00:03:11.521Z,42.39
2018-08-13T00:05:38.161Z,42.55
2018-08-13T00:08:04.839Z,42.48
2018-08-13T00:10:31.474Z,42.49
2018-08-13T00:12:58.161Z,42.49
2018-08-13T00:15:24.822Z,42.48
2018-08-13T00:17:51.574Z,42.43
2018-08-13T00:20:18.207Z,42.41
2018-08-13T00:22:44.900Z,42.38
2018-08-13T00:25:11.537Z,42.47
2018-08-13T00:27:38.216Z,42.47
2018-08-13T00:30:04.822Z,42.56
2018-08-13T00:32:31.501Z,42.60
2018-08-13T00:34:58.130Z,42.72
2018-08-13T00:37:24.764Z,42.64
2018-08-13T00:39:51.409Z,42.72
2018-08-13T00:42:18.073Z,42.62
2018-08-13T00:44:44.765Z,42.77
2018-08-13T00:47:11.473Z,42.70
2018-08-13T00:49:38.153Z,42.81
2018-08-13T00:52:04.840Z,42.83
2018-08-13T00:54:31.526Z,42.76
2018-08-13T00:56:58.172Z,42.78
2018-08-13T00:59:24.816Z,42.95
2018-08-13T01:01:51.457Z,42.98
2018-08-13T01:04:18.133Z,42.95
2018-08-13T01:06:44.818Z,42.93
2018-08-13T01:09:11.449Z,42.96
2018-08-13T01:11:38.194Z,42.93
2018-08-13T01:14:04.842Z,43.03
2018-08-13T01:16:31.511Z,43.02
2018-08-13T01:18:58.110Z,42.98
2018-08-13T01:21:24.766Z,42.90
2018-08-13T01:23:51.395Z,43.04
2018-08-13T01:26:18.051Z,43.03
2018-08-13T01:28:44.709Z,42.99
2018-08-13T01:31:11.347Z,43.03
2018-08-13T01:33:37.988Z,43.00
2018-08-13T01:36:04.654Z,42.96
2018-08-13T01:38:31.276Z,43.04
2018-08-13T01:40:57.915Z,43.09
2018-08-13T01:43:24.548Z,43.10
2018-08-13T01:45:51.184Z,43.04
2018-08-13T01:48:17.839Z,43.05
2018-08-13T01:50:44.595Z,43.13
2018-08-13T01:53:11.232Z,43.03
2018-08-13T01:55:37.881Z,43.07
2018-08-13T01:58:04.508Z,43.07
2018-08-13T02:00:31.153Z,43.17
2018-08-13T02:02:57.796Z,42.99
2018-08-13T02:05:24.427Z,43.06
2018-08-13T02:07:51.061Z,43.14
2018-08-13T02:10:17.698Z,43.11
2018-08-13T02:12:44.348Z,43.11
2018-08-13T02:15:10.999Z,43.08
2018-08-13T02:17:37.621Z,43.12
2018-08-13T02:20:04.260Z,43.06
2018-08-13T02:22:30.900Z,43.12
2018-08-13T02:24:57.549Z,43.18
2018-08-13T02:27:24.182Z,43.27
2018-08-13T02:29:50.820Z,43.31
2018-08-13T02:32:17.462Z,43.30
2018-08-13T02:34:44.100Z,43.32
2018-08-13T02:37:10.735Z,43.28
2018-08-13T02:39:37.451Z,43.33
2018-08-13T02:42:04.110Z,43.38
2018-08-13T02:44:30.750Z,43.23
2018-08-13T02:49:24.029Z,43.30
2018-08-13T02:51:50.701Z,43.29
2018-08-13T02:54:17.327Z,43.34
2018-08-13T02:56:43.964Z,43.32
2018-08-13T02:59:10.603Z,43.31
2018-08-13T03:01:37.259Z,43.41
2018-08-13T03:04:03.896Z,43.39
2018-08-13T03:06:30.544Z,43.21
2018-08-13T03:08:57.183Z,43.29
2018-08-13T03:11:23.820Z,43.59
2018-08-13T03:13:50.464Z,43.85
2018-08-13T03:16:17.105Z,44.03
2018-08-13T03:18:43.749Z,44.09
2018-08-13T03:21:10.394Z,44.24
2018-08-13T03:23:37.019Z,44.19
2018-08-13T03:26:03.662Z,44.39
2018-08-13T03:28:30.344Z,44.08
2018-08-13T03:30:56.974Z,44.14
2018-08-13T03:33:23.606Z,44.27
2018-08-13T03:35:50.238Z,44.03
2018-08-13T03:38:16.881Z,44.00
2018-08-13T03:40:43.545Z,43.86
2018-08-13T03:43:10.141Z,44.11
2018-08-13T03:45:36.782Z,44.26
2018-08-13T03:48:03.419Z,44.04
2018-08-13T03:50:30.053Z,43.80
2018-08-13T03:52:56.700Z,44.06
2018-08-13T03:55:23.350Z,43.98
2018-08-13T03:57:49.982Z,43.88
2018-08-13T04:00:16.675Z,43.83
2018-08-13T04:02:43.364Z,43.82
2018-08-13T04:05:10.042Z,43.58
2018-08-13T04:07:36.688Z,44.04
2018-08-13T04:10:03.331Z,43.48
2018-08-13T04:12:29.973Z,43.42
2018-08-13T04:14:56.653Z,43.25
2018-08-13T04:17:23.255Z,43.39
2018-08-13T04:19:49.900Z,43.15
2018-08-13T04:22:16.538Z,43.12
2018-08-13T04:24:43.218Z,43.02
2018-08-13T04:27:09.825Z,43.04
2018-08-13T04:29:36.474Z,43.03
2018-08-13T04:32:03.097Z,43.00
2018-08-13T04:34:29.726Z,42.81
2018-08-13T04:36:56.373Z,42.39
2018-08-13T04:39:23.015Z,41.53
2018-08-13T04:41:49.660Z,41.19
2018-08-13T04:44:16.297Z,41.35
2018-08-13T04:46:42.933Z,41.48
2018-08-13T04:49:09.567Z,41.62
2018-08-13T04:51:36.199Z,41.30
2018-08-13T04:54:02.829Z,41.38
2018-08-13T04:56:29.477Z,41.15
2018-08-13T04:58:56.163Z,40.71
2018-08-13T05:01:22.749Z,40.79
2018-08-13T05:03:49.419Z,40.98
2018-08-13T05:06:16.054Z,40.92
2018-08-13T05:08:42.691Z,40.81
2018-08-13T05:11:09.331Z,40.91
2018-08-13T05:13:35.979Z,40.69
2018-08-13T05:16:02.627Z,40.79
2018-08-13T05:18:29.314Z,40.83
2018-08-13T05:20:55.957Z,40.75
2018-08-13T05:23:22.618Z,40.48
2018-08-13T05:25:49.272Z,40.19
2018-08-13T05:28:15.909Z,40.35
2018-08-13T05:30:42.551Z,40.74
2018-08-13T05:33:09.193Z,40.68
2018-08-13T05:35:35.832Z,40.63
2018-08-13T05:38:02.551Z,39.88
2018-08-13T05:40:29.163Z,40.26
2018-08-13T05:42:56.079Z,40.63
2018-08-13T05:45:22.743Z,40.46
2018-08-13T05:47:49.381Z,40.62
2018-08-13T05:50:16.028Z,40.55
2018-08-13T05:52:42.692Z,40.59
2018-08-13T05:55:09.351Z,40.23
2018-08-13T05:57:36.109Z,40.52
2018-08-13T06:00:02.807Z,40.31
2018-08-13T06:02:29.462Z,40.81
2018-08-13T06:04:56.108Z,40.69
2018-08-13T06:07:22.755Z,40.60
2018-08-13T06:09:49.395Z,40.58
2018-08-13T06:12:16.104Z,40.37
2018-08-13T06:14:42.738Z,40.46
2018-08-13T06:17:09.408Z,40.78
2018-08-13T06:19:36.079Z,40.08
2018-08-13T06:22:02.714Z,40.18
2018-08-13T06:24:29.366Z,40.29
2018-08-13T06:26:56.005Z,40.76
2018-08-13T06:29:22.699Z,40.58
2018-08-13T06:31:49.412Z,40.65
2018-08-13T06:34:16.018Z,40.68
2018-08-13T06:36:42.831Z,41.06
2018-08-13T06:39:09.667Z,40.99
2018-08-13T06:41:36.362Z,40.69
2018-08-13T06:44:03.009Z,41.09
2018-08-13T06:46:29.656Z,41.41
2018-08-13T06:48:56.364Z,41.06
2018-08-13T06:51:23.064Z,41.18
2018-08-13T06:53:49.778Z,40.92
2018-08-13T06:56:16.395Z,41.27
2018-08-13T06:58:43.028Z,41.39
2018-08-13T07:01:09.702Z,41.07
2018-08-13T07:03:36.358Z,41.11
2018-08-13T07:06:03.059Z,41.28
2018-08-13T07:08:29.707Z,41.31
2018-08-13T07:10:56.345Z,41.19
2018-08-13T07:13:22.994Z,41.09
2018-08-13T07:15:49.648Z,41.20
2018-08-13T07:18:16.284Z,41.29
2018-08-13T07:20:42.922Z,41.30
2018-08-13T07:23:09.618Z,41.15
2018-08-13T07:25:36.257Z,41.07
2018-08-13T07:28:03.939Z,40.98
2018-08-13T07:30:30.542Z,41.11
2018-08-13T07:32:57.203Z,41.12
2018-08-13T07:35:23.853Z,41.30
2018-08-13T07:37:50.490Z,41.73
2018-08-13T07:40:17.155Z,41.92
2018-08-13T07:42:43.801Z,42.13
2018-08-13T07:45:10.438Z,42.53
2018-08-13T07:47:37.100Z,42.66
2018-08-13T07:50:03.808Z,42.73
2018-08-13T07:52:30.568Z,42.56
2018-08-13T07:54:58.460Z,42.44
2018-08-13T07:57:25.148Z,42.62
2018-08-13T07:59:51.794Z,42.45
2018-08-13T08:02:18.443Z,42.28
2018-08-13T08:04:45.144Z,42.31
2018-08-13T08:07:11.787Z,42.41
2018-08-13T08:09:38.476Z,42.32
2018-08-13T08:12:05.122Z,42.42
2018-08-13T08:14:31.792Z,42.47
2018-08-13T08:16:58.399Z,42.09
2018-08-13T08:19:25.080Z,42.16
2018-08-13T08:21:51.747Z,42.02
2018-08-13T08:24:18.418Z,41.88
2018-08-13T08:26:45.051Z,42.23
2018-08-13T08:29:11.742Z,42.34
2018-08-13T08:31:38.344Z,42.39
2018-08-13T08:34:05.000Z,42.42
2018-08-13T08:36:31.707Z,42.40
2018-08-13T08:38:58.374Z,42.34
2018-08-13T08:41:25.065Z,42.75
2018-08-13T08:43:51.720Z,42.95
2018-08-13T08:46:18.356Z,42.86
2018-08-13T08:48:45.009Z,43.17
2018-08-13T08:51:11.644Z,42.25
2018-08-13T08:53:38.336Z,42.46
2018-08-13T08:56:04.950Z,42.20
2018-08-13T08:58:31.597Z,42.01
2018-08-13T09:00:58.271Z,42.55
2018-08-13T09:03:24.920Z,42.49
2018-08-13T09:05:51.616Z,43.52
2018-08-13T09:08:18.339Z,43.38
2018-08-13T09:10:45.018Z,43.08
2018-08-13T09:13:11.646Z,42.93
2018-08-13T09:15:38.281Z,42.80
2018-08-13T09:18:04.976Z,43.03
2018-08-13T09:20:31.640Z,42.84
2018-08-13T09:22:58.287Z,42.61
2018-08-13T09:25:25.016Z,42.77
2018-08-13T09:27:51.601Z,42.37
2018-08-13T09:30:18.241Z,42.17
2018-08-13T09:32:44.891Z,42.06
2018-08-13T09:35:11.660Z,42.28
2018-08-13T09:37:38.332Z,42.22
2018-08-13T09:40:04.982Z,42.47
2018-08-13T09:42:31.756Z,42.58
2018-08-13T09:44:58.424Z,43.21
2018-08-13T09:47:25.064Z,43.11
2018-08-13T09:49:51.704Z,43.20
2018-08-13T09:52:18.366Z,42.40
2018-08-13T09:54:45.000Z,41.87
2018-08-13T09:57:11.639Z,42.27
2018-08-13T09:59:40.231Z,41.56
2018-08-13T10:02:06.833Z,41.96
2018-08-13T10:04:33.522Z,41.52
2018-08-13T10:07:00.189Z,42.11
2018-08-13T10:09:26.852Z,42.55
2018-08-13T10:11:53.528Z,42.81
2018-08-13T10:14:20.188Z,43.09
2018-08-13T10:16:46.900Z,42.00
2018-08-13T10:19:13.476Z,42.05
2018-08-13T10:21:40.135Z,41.38
2018-08-13T10:24:06.777Z,41.12
2018-08-13T10:26:33.437Z,40.92
2018-08-13T10:29:00.087Z,40.83
2018-08-13T10:31:26.735Z,40.38
2018-08-13T10:33:53.379Z,40.20
2018-08-13T10:36:20.025Z,41.24
2018-08-13T10:38:46.716Z,41.88
2018-08-13T10:41:13.320Z,41.46
2018-08-13T10:43:40.003Z,42.20
2018-08-13T10:46:06.643Z,42.17
2018-08-13T10:48:33.369Z,42.40
2018-08-13T10:51:00.013Z,41.11
2018-08-13T10:53:26.682Z,41.55
2018-08-13T10:55:53.372Z,41.92
2018-08-13T10:58:19.977Z,42.39
2018-08-13T11:00:46.629Z,42.26
2018-08-13T11:03:13.273Z,42.88
2018-08-13T11:05:39.895Z,42.48
2018-08-13T11:08:06.542Z,42.54
2018-08-13T11:10:33.294Z,42.70
2018-08-13T11:13:03.376Z,42.59
2018-08-13T11:15:30.022Z,42.74
2018-08-13T11:17:56.676Z,42.40
2018-08-13T11:20:23.303Z,42.46
2018-08-13T11:22:50.064Z,42.58
2018-08-13T11:25:16.740Z,42.50
2018-08-13T11:27:43.370Z,42.22
2018-08-13T11:30:10.014Z,42.48
2018-08-13T11:32:36.667Z,42.17
2018-08-13T11:35:03.327Z,42.16
2018-08-13T11:37:30.035Z,42.20
2018-08-13T11:39:56.646Z,42.17
2018-08-13T11:42:23.337Z,42.17
2018-08-13T11:44:51.133Z,42.07
2018-08-13T11:47:17.849Z,41.76
2018-08-13T11:49:44.508Z,41.54
2018-08-13T11:52:11.175Z,41.54
2018-08-13T11:54:42.347Z,41.26
2018-08-13T11:57:09.036Z,41.57
2018-08-13T11:59:35.680Z,41.40
2018-08-13T12:02:02.348Z,41.45
2018-08-13T12:04:29.009Z,41.38
2018-08-13T12:06:55.661Z,41.33
2018-08-13T12:09:22.324Z,41.48
2018-08-13T12:11:49.008Z,41.68
2018-08-13T12:14:15.646Z,41.58
2018-08-13T12:16:42.342Z,41.42
2018-08-13T12:19:08.986Z,41.49
2018-08-13T12:21:35.680Z,41.79
2018-08-13T12:24:02.336Z,41.70
2018-08-13T12:26:29.035Z,41.97
2018-08-13T12:28:55.665Z,41.77
2018-08-13T12:31:22.803Z,41.45
2018-08-13T12:33:49.624Z,40.97
2018-08-13T12:36:16.463Z,40.55
2018-08-13T12:38:43.105Z,40.90
2018-08-13T12:43:36.481Z,41.18
2018-08-13T12:46:03.128Z,41.35
2018-08-13T12:48:29.805Z,41.60
2018-08-13T12:50:56.468Z,41.41
2018-08-13T12:53:23.110Z,41.42
2018-08-13T12:55:49.794Z,41.36
2018-08-13T12:58:16.443Z,41.36
2018-08-13T13:00:43.127Z,41.50
2018-08-13T13:03:09.776Z,41.29
2018-08-13T13:05:36.519Z,41.41
2018-08-13T13:08:03.202Z,41.22
2018-08-13T13:10:30.152Z,41.24
2018-08-13T13:12:56.834Z,41.26
2018-08-13T13:15:23.531Z,41.06
2018-08-13T13:17:50.168Z,40.78
2018-08-13T13:20:16.812Z,41.11
2018-08-13T13:22:43.511Z,41.07
2018-08-13T13:25:10.155Z,41.02
2018-08-13T13:27:36.831Z,40.83
2018-08-13T13:30:03.469Z,40.93
2018-08-13T13:32:30.128Z,40.87
2018-08-13T13:34:56.766Z,40.88
2018-08-13T13:37:23.415Z,40.66
2018-08-13T13:39:50.054Z,40.78
2018-08-13T13:42:16.782Z,40.83
2018-08-13T13:44:43.463Z,40.93
2018-08-13T13:47:10.159Z,40.97
2018-08-13T13:49:36.803Z,40.46
2018-08-13T13:52:03.454Z,40.49
2018-08-13T13:54:30.105Z,40.44
2018-08-13T13:56:56.740Z,39.86
2018-08-13T13:59:23.393Z,39.77
2018-08-13T14:01:50.050Z,39.86
2018-08-13T14:04:16.711Z,40.21
2018-08-13T14:06:43.353Z,40.45
2018-08-13T14:09:10.030Z,40.58
2018-08-13T14:11:36.723Z,40.74
2018-08-13T14:14:03.370Z,40.72
2018-08-13T14:16:30.012Z,41.05
2018-08-13T14:18:56.909Z,40.45
2018-08-13T14:21:23.536Z,39.96
2018-08-13T14:23:50.183Z,39.84
2018-08-13T14:26:17.061Z,39.64
2018-08-13T14:28:43.704Z,39.73
2018-08-13T14:31:10.420Z,39.81
2018-08-13T14:33:37.027Z,40.28
2018-08-13T14:36:03.712Z,40.39
2018-08-13T14:38:30.365Z,40.47
2018-08-13T14:40:57.050Z,40.60
2018-08-13T14:43:23.737Z,40.59
2018-08-13T14:45:50.381Z,40.80
2018-08-13T14:48:17.016Z,39.74
2018-08-13T14:50:43.671Z,39.43
2018-08-13T14:53:10.357Z,39.20
2018-08-13T14:55:37.031Z,39.20
2018-08-13T14:58:03.677Z,39.41
2018-08-13T15:00:30.417Z,39.64
2018-08-13T15:02:57.083Z,39.99
2018-08-13T15:05:24.127Z,39.97
2018-08-13T15:07:50.812Z,40.62
2018-08-13T15:10:17.442Z,39.65
2018-08-13T15:12:44.133Z,39.20
2018-08-13T15:15:10.758Z,39.27
2018-08-13T15:17:37.431Z,39.38
2018-08-13T15:20:04.140Z,39.22
2018-08-13T15:22:30.791Z,39.18
2018-08-13T15:24:57.439Z,39.24
2018-08-13T15:27:24.326Z,39.17
2018-08-13T15:29:50.761Z,39.12
2018-08-13T15:32:17.486Z,39.07
2018-08-13T15:34:44.101Z,39.19
2018-08-13T15:37:10.732Z,39.13
2018-08-13T15:39:37.371Z,39.03
2018-08-13T15:42:04.052Z,38.98
2018-08-13T15:44:30.703Z,38.98
2018-08-13T15:46:57.473Z,38.91
2018-08-13T15:49:24.122Z,38.85
2018-08-13T15:51:50.761Z,38.94
2018-08-13T15:54:17.470Z,38.90
2018-08-13T15:56:44.114Z,38.92
2018-08-13T15:59:10.763Z,38.99
2018-08-13T16:01:37.501Z,38.84
2018-08-13T16:04:04.159Z,38.91
2018-08-13T16:06:30.859Z,38.77
2018-08-13T16:08:57.498Z,38.72
2018-08-13T16:11:24.147Z,38.66
2018-08-13T16:13:50.787Z,38.52
2018-08-13T16:16:17.459Z,38.77
2018-08-13T16:18:44.104Z,38.57
2018-08-13T16:21:10.763Z,38.76
2018-08-13T16:23:37.410Z,38.83
2018-08-13T16:26:04.096Z,38.72
2018-08-13T16:28:30.780Z,38.78
2018-08-13T16:30:57.410Z,38.63
2018-08-13T16:33:24.100Z,38.70
2018-08-13T16:35:50.724Z,38.59
2018-08-13T16:38:17.410Z,38.45
2018-08-13T16:40:44.046Z,38.56
2018-08-13T16:43:10.677Z,38.50
2018-08-13T16:45:37.353Z,38.39
2018-08-13T16:48:04.016Z,38.51
2018-08-13T16:50:30.641Z,38.34
2018-08-13T16:52:57.328Z,38.28
2018-08-13T16:55:23.956Z,38.45
2018-08-13T16:57:53.635Z,38.49
2018-08-13T17:00:20.281Z,38.30
2018-08-13T17:02:46.977Z,38.16
2018-08-13T17:05:13.629Z,38.72
2018-08-13T17:07:40.339Z,39.73
2018-08-13T17:10:07.011Z,39.42
2018-08-13T17:12:33.646Z,39.32
2018-08-13T17:15:00.309Z,38.70
2018-08-13T17:17:26.946Z,38.51
2018-08-13T17:19:53.579Z,38.05
2018-08-13T17:22:20.271Z,37.89
2018-08-13T17:24:46.924Z,37.73
2018-08-13T17:27:13.581Z,37.63
2018-08-13T17:29:40.215Z,37.56
2018-08-13T17:32:06.905Z,37.30
2018-08-13T17:34:33.532Z,37.28
2018-08-13T17:37:00.213Z,37.10
2018-08-13T17:39:26.859Z,37.01
2018-08-13T17:41:53.500Z,37.05
2018-08-13T17:44:20.171Z,36.92
2018-08-13T17:46:46.812Z,36.81
2018-08-13T17:49:13.492Z,36.82
2018-08-13T17:51:40.119Z,36.69
2018-08-13T17:54:06.799Z,36.63
2018-08-13T17:56:33.429Z,36.53
2018-08-13T17:59:00.063Z,36.58
2018-08-13T18:01:26.704Z,36.52
2018-08-13T18:03:53.337Z,36.42
2018-08-13T18:06:20.016Z,36.49
2018-08-13T18:08:46.693Z,36.35
2018-08-13T18:11:13.367Z,36.36
2018-08-13T18:13:40.038Z,36.33
2018-08-13T18:16:09.720Z,36.47
2018-08-13T18:18:36.409Z,36.42
2018-08-13T18:21:03.133Z,36.23
2018-08-13T18:23:29.756Z,36.24
2018-08-13T18:25:56.430Z,36.32
2018-08-13T18:28:23.068Z,36.16
2018-08-13T18:30:49.703Z,36.18
2018-08-13T18:33:16.380Z,36.15
2018-08-13T18:35:43.016Z,35.95
2018-08-13T18:38:09.659Z,35.93
2018-08-13T18:40:36.301Z,35.83
2018-08-13T18:43:02.988Z,35.77
2018-08-13T18:45:29.620Z,35.78
2018-08-13T18:47:56.305Z,35.58
2018-08-13T18:50:22.939Z,35.58
2018-08-13T18:52:49.630Z,35.59
2018-08-13T18:55:16.314Z,35.54
2018-08-13T18:57:43.001Z,35.62
2018-08-13T19:00:09.635Z,36.35
2018-08-13T19:02:36.274Z,37.49
2018-08-13T19:05:02.913Z,37.27
2018-08-13T19:07:29.550Z,37.64
2018-08-13T19:09:56.483Z,37.54
2018-08-13T19:12:23.118Z,37.17
2018-08-13T19:14:49.790Z,37.20
2018-08-13T19:17:16.429Z,36.87
2018-08-13T19:19:43.142Z,36.70
2018-08-13T19:22:09.763Z,36.60
2018-08-13T19:24:36.397Z,36.32
2018-08-13T19:27:03.041Z,36.11
2018-08-13T19:29:29.678Z,35.90
2018-08-13T19:31:56.314Z,35.78
2018-08-13T19:34:22.979Z,35.70
2018-08-13T19:36:49.661Z,35.45
2018-08-13T19:39:16.298Z,35.35
2018-08-13T19:41:42.934Z,35.24
2018-08-13T19:44:09.570Z,35.13
2018-08-13T19:46:36.212Z,34.93
2018-08-13T19:49:02.892Z,34.86
2018-08-13T19:51:29.573Z,35.13
2018-08-13T19:53:56.208Z,36.28
2018-08-13T19:56:22.841Z,36.66
2018-08-13T19:58:49.479Z,36.72
2018-08-13T20:01:16.109Z,37.10
2018-08-13T20:03:42.797Z,36.09
2018-08-13T20:06:09.473Z,36.29
2018-08-13T20:08:36.108Z,36.28
2018-08-13T20:11:02.745Z,36.06
2018-08-13T20:13:29.471Z,35.95
2018-08-13T20:15:56.066Z,35.82
2018-08-13T20:18:22.760Z,35.72
2018-08-13T20:20:49.402Z,35.48
2018-08-13T20:23:16.082Z,35.24
2018-08-13T20:25:42.714Z,35.11
2018-08-13T20:28:09.343Z,35.12
2018-08-13T20:30:35.990Z,35.01
2018-08-13T20:33:02.677Z,34.86
2018-08-13T20:35:29.381Z,34.91
2018-08-13T20:37:56.017Z,34.62
2018-08-13T20:40:22.663Z,34.61
2018-08-13T20:42:49.302Z,34.80
2018-08-13T20:45:15.995Z,35.86
2018-08-13T20:47:42.631Z,36.61
2018-08-13T20:50:09.316Z,36.54
2018-08-13T20:52:35.950Z,36.82
2018-08-13T20:55:02.583Z,37.03
2018-08-13T20:57:29.232Z,36.29
2018-08-13T20:59:55.921Z,36.44
2018-08-13T21:02:22.561Z,36.31
2018-08-13T21:04:49.269Z,36.05
2018-08-13T21:07:15.881Z,35.97
2018-08-13T21:09:42.578Z,35.83
2018-08-13T21:12:09.205Z,35.60
2018-08-13T21:14:36.017Z,35.45
2018-08-13T21:17:02.642Z,35.25
2018-08-13T21:19:29.272Z,35.12
2018-08-13T21:21:55.920Z,35.01
2018-08-13T21:24:22.598Z,34.90
2018-08-13T21:26:49.280Z,34.66
2018-08-13T21:29:15.918Z,34.72
2018-08-13T21:31:42.606Z,34.96
2018-08-13T21:34:12.516Z,36.06
2018-08-13T21:36:39.205Z,36.64
2018-08-13T21:39:05.847Z,36.83
2018-08-13T21:41:32.480Z,37.02
2018-08-13T21:43:59.312Z,37.00
2018-08-13T21:46:25.950Z,37.07
2018-08-13T21:48:52.596Z,37.13
2018-08-13T21:51:19.277Z,37.15
2018-08-13T21:53:45.923Z,37.23
2018-08-13T21:56:12.603Z,37.30
2018-08-13T21:58:39.285Z,37.30
2018-08-13T22:01:05.962Z,37.33
2018-08-13T22:03:32.596Z,37.33
2018-08-13T22:05:59.241Z,37.36
2018-08-13T22:08:25.884Z,37.51
2018-08-13T22:10:52.509Z,37.42
2018-08-13T22:13:19.149Z,37.60
2018-08-13T22:15:45.785Z,37.52
2018-08-13T22:18:12.426Z,37.68
2018-08-13T22:20:39.068Z,37.50
2018-08-13T22:23:05.720Z,37.47
2018-08-13T22:25:32.361Z,37.66
2018-08-13T22:27:59.002Z,37.69
2018-08-13T22:30:25.636Z,37.74
2018-08-13T22:32:52.269Z,37.67
2018-08-13T22:35:18.911Z,37.57
2018-08-13T22:37:45.546Z,37.77
2018-08-13T22:40:12.182Z,37.72
2018-08-13T22:42:38.808Z,37.54
2018-08-13T22:45:05.456Z,37.57
2018-08-13T22:47:32.094Z,37.69
2018-08-13T22:49:58.734Z,37.59
2018-08-13T22:52:25.426Z,37.55
2018-08-13T22:54:52.017Z,37.52
2018-08-13T22:57:18.658Z,37.61
2018-08-13T22:59:45.305Z,37.52
2018-08-13T23:02:11.948Z,37.51
2018-08-13T23:04:38.630Z,37.55
2018-08-13T23:07:05.266Z,37.52
2018-08-13T23:09:31.904Z,37.58
2018-08-13T23:11:58.552Z,37.59
2018-08-13T23:14:25.180Z,37.60
2018-08-13T23:16:51.830Z,37.62
2018-08-13T23:19:18.510Z,37.54
2018-08-13T23:21:45.154Z,37.62
2018-08-13T23:24:11.792Z,37.76
2018-08-13T23:26:38.429Z,37.71
2018-08-13T23:29:05.081Z,37.67
2018-08-13T23:31:31.727Z,37.75
2018-08-13T23:33:58.365Z,37.68
2018-08-13T23:36:25.002Z,37.67
2018-08-13T23:38:51.639Z,37.61
2018-08-13T23:41:18.277Z,37.63
2018-08-13T23:43:44.915Z,37.79
2018-08-13T23:46:11.553Z,37.75
2018-08-13T23:48:38.207Z,37.67
2018-08-13T23:51:04.891Z,37.72
2018-08-13T23:53:31.498Z,37.69
2018-08-13T23:55:58.137Z,37.70
2018-08-13T23:58:24.770Z,37.76
